sensor_id;sensor_type;location;lat;lon;timestamp;P1;durP1;ratioP1;P2;durP2;ratioP2
59978;SDS011;45839;44.882;20.650;2024-01-15T00:00:51;53.42;;;30.98;;
59978;SDS011;45839;44.882;20.650;2024-01-15T00:03:18;54.38;;;31.98;;
59978;SDS011;45839;44.882;20.650;2024-01-15T00:05:44;48.95;;;31.08;;
59978;SDS011;45839;44.882;20.650;2024-01-15T00:08:11;50.58;;;29.73;;
59978;SDS011;45839;44.882;20.650;2024-01-15T00:10:37;50.60;;;30.20;;
59978;SDS011;45839;44.882;20.650;2024-01-15T00:13:05;50.22;;;29.50;;
59978;SDS011;45839;44.882;20.650;2024-01-15T00:15:31;50.47;;;30.23;;
59978;SDS011;45839;44.882;20.650;2024-01-15T00:17:57;47.05;;;29.85;;
59978;SDS011;45839;44.882;20.650;2024-01-15T00:20:24;49.53;;;29.85;;
59978;SDS011;45839;44.882;20.650;2024-01-15T00:22:50;50.03;;;30.60;;
59978;SDS011;45839;44.882;20.650;2024-01-15T00:25:16;54.97;;;31.40;;
59978;SDS011;45839;44.882;20.650;2024-01-15T00:27:43;48.25;;;29.83;;
59978;SDS011;45839;44.882;20.650;2024-01-15T00:30:09;49.63;;;29.25;;
59978;SDS011;45839;44.882;20.650;2024-01-15T00:32:35;48.70;;;29.70;;
59978;SDS011;45839;44.882;20.650;2024-01-15T00:35:01;53.53;;;30.52;;
59978;SDS011;45839;44.882;20.650;2024-01-15T00:37:28;50.75;;;29.20;;
59978;SDS011;45839;44.882;20.650;2024-01-15T00:39:54;50.25;;;30.38;;
59978;SDS011;45839;44.882;20.650;2024-01-15T00:42:21;50.90;;;30.42;;
59978;SDS011;45839;44.882;20.650;2024-01-15T00:44:47;51.20;;;30.50;;
59978;SDS011;45839;44.882;20.650;2024-01-15T00:47:13;47.53;;;28.65;;
59978;SDS011;45839;44.882;20.650;2024-01-15T00:49:39;47.10;;;29.55;;
59978;SDS011;45839;44.882;20.650;2024-01-15T00:52:05;49.30;;;29.88;;
59978;SDS011;45839;44.882;20.650;2024-01-15T00:54:31;46.63;;;29.60;;
59978;SDS011;45839;44.882;20.650;2024-01-15T00:56:57;45.60;;;28.08;;
59978;SDS011;45839;44.882;20.650;2024-01-15T00:59:24;52.08;;;28.50;;
59978;SDS011;45839;44.882;20.650;2024-01-15T01:01:50;43.60;;;27.90;;
59978;SDS011;45839;44.882;20.650;2024-01-15T01:04:16;47.70;;;27.90;;
59978;SDS011;45839;44.882;20.650;2024-01-15T01:06:42;45.28;;;28.95;;
59978;SDS011;45839;44.882;20.650;2024-01-15T01:09:08;50.35;;;28.45;;
59978;SDS011;45839;44.882;20.650;2024-01-15T01:11:34;46.45;;;28.55;;
59978;SDS011;45839;44.882;20.650;2024-01-15T01:14:00;44.50;;;27.65;;
59978;SDS011;45839;44.882;20.650;2024-01-15T01:16:26;48.60;;;29.77;;
59978;SDS011;45839;44.882;20.650;2024-01-15T01:18:56;46.65;;;29.52;;
59978;SDS011;45839;44.882;20.650;2024-01-15T01:21:22;49.25;;;29.83;;
59978;SDS011;45839;44.882;20.650;2024-01-15T01:23:48;49.85;;;29.27;;
59978;SDS011;45839;44.882;20.650;2024-01-15T01:26:15;49.15;;;29.10;;
59978;SDS011;45839;44.882;20.650;2024-01-15T01:28:41;48.00;;;29.58;;
59978;SDS011;45839;44.882;20.650;2024-01-15T01:31:07;49.00;;;28.92;;
59978;SDS011;45839;44.882;20.650;2024-01-15T01:33:33;44.72;;;27.58;;
59978;SDS011;45839;44.882;20.650;2024-01-15T01:35:59;47.78;;;27.92;;
59978;SDS011;45839;44.882;20.650;2024-01-15T01:38:32;46.75;;;28.65;;
59978;SDS011;45839;44.882;20.650;2024-01-15T01:41:01;47.93;;;29.87;;
59978;SDS011;45839;44.882;20.650;2024-01-15T01:43:27;45.50;;;27.45;;
59978;SDS011;45839;44.882;20.650;2024-01-15T01:45:54;47.78;;;29.17;;
59978;SDS011;45839;44.882;20.650;2024-01-15T01:48:23;46.53;;;28.10;;
59978;SDS011;45839;44.882;20.650;2024-01-15T01:50:51;43.72;;;27.23;;
59978;SDS011;45839;44.882;20.650;2024-01-15T01:53:17;49.08;;;27.25;;
59978;SDS011;45839;44.882;20.650;2024-01-15T01:55:43;42.65;;;26.92;;
59978;SDS011;45839;44.882;20.650;2024-01-15T01:58:09;47.50;;;26.95;;
59978;SDS011;45839;44.882;20.650;2024-01-15T02:00:35;47.92;;;28.23;;
59978;SDS011;45839;44.882;20.650;2024-01-15T02:03:02;42.50;;;26.52;;
59978;SDS011;45839;44.882;20.650;2024-01-15T02:05:28;44.13;;;27.35;;
59978;SDS011;45839;44.882;20.650;2024-01-15T02:07:54;48.00;;;27.88;;
59978;SDS011;45839;44.882;20.650;2024-01-15T02:10:20;46.35;;;28.38;;
59978;SDS011;45839;44.882;20.650;2024-01-15T02:12:48;42.65;;;26.80;;
59978;SDS011;45839;44.882;20.650;2024-01-15T02:15:14;44.97;;;26.33;;
59978;SDS011;45839;44.882;20.650;2024-01-15T02:17:56;41.08;;;25.52;;
59978;SDS011;45839;44.882;20.650;2024-01-15T02:20:23;43.45;;;26.00;;
59978;SDS011;45839;44.882;20.650;2024-01-15T02:22:49;44.85;;;25.55;;
59978;SDS011;45839;44.882;20.650;2024-01-15T02:25:15;42.28;;;25.77;;
59978;SDS011;45839;44.882;20.650;2024-01-15T02:27:41;41.83;;;25.98;;
59978;SDS011;45839;44.882;20.650;2024-01-15T02:30:08;43.25;;;25.23;;
59978;SDS011;45839;44.882;20.650;2024-01-15T02:32:35;39.50;;;25.38;;
59978;SDS011;45839;44.882;20.650;2024-01-15T02:35:03;40.17;;;24.73;;
59978;SDS011;45839;44.882;20.650;2024-01-15T02:37:29;39.60;;;24.27;;
59978;SDS011;45839;44.882;20.650;2024-01-15T02:39:55;42.25;;;25.67;;
59978;SDS011;45839;44.882;20.650;2024-01-15T02:42:21;39.97;;;24.90;;
59978;SDS011;45839;44.882;20.650;2024-01-15T02:44:47;43.35;;;25.10;;
59978;SDS011;45839;44.882;20.650;2024-01-15T02:47:14;37.78;;;23.40;;
59978;SDS011;45839;44.882;20.650;2024-01-15T02:49:40;38.03;;;24.05;;
59978;SDS011;45839;44.882;20.650;2024-01-15T02:52:06;38.80;;;23.15;;
59978;SDS011;45839;44.882;20.650;2024-01-15T02:54:32;41.88;;;24.75;;
59978;SDS011;45839;44.882;20.650;2024-01-15T02:56:58;39.08;;;24.05;;
59978;SDS011;45839;44.882;20.650;2024-01-15T02:59:24;42.25;;;24.63;;
59978;SDS011;45839;44.882;20.650;2024-01-15T03:01:50;39.20;;;24.83;;
59978;SDS011;45839;44.882;20.650;2024-01-15T03:04:17;41.88;;;24.67;;
59978;SDS011;45839;44.882;20.650;2024-01-15T03:06:43;36.58;;;22.95;;
59978;SDS011;45839;44.882;20.650;2024-01-15T03:09:09;35.95;;;22.75;;
59978;SDS011;45839;44.882;20.650;2024-01-15T03:11:38;35.13;;;22.60;;
59978;SDS011;45839;44.882;20.650;2024-01-15T03:14:04;35.75;;;21.98;;
59978;SDS011;45839;44.882;20.650;2024-01-15T03:16:31;34.47;;;22.38;;
59978;SDS011;45839;44.882;20.650;2024-01-15T03:18:57;35.85;;;22.48;;
59978;SDS011;45839;44.882;20.650;2024-01-15T03:21:23;34.65;;;22.73;;
59978;SDS011;45839;44.882;20.650;2024-01-15T03:23:49;35.33;;;22.63;;
59978;SDS011;45839;44.882;20.650;2024-01-15T03:26:15;37.28;;;21.40;;
59978;SDS011;45839;44.882;20.650;2024-01-15T03:28:41;36.97;;;22.73;;
59978;SDS011;45839;44.882;20.650;2024-01-15T03:31:07;34.97;;;21.80;;
59978;SDS011;45839;44.882;20.650;2024-01-15T03:33:33;35.40;;;23.20;;
59978;SDS011;45839;44.882;20.650;2024-01-15T03:35:59;40.35;;;22.75;;
59978;SDS011;45839;44.882;20.650;2024-01-15T03:38:27;37.75;;;22.02;;
59978;SDS011;45839;44.882;20.650;2024-01-15T03:40:54;38.40;;;23.75;;
59978;SDS011;45839;44.882;20.650;2024-01-15T03:43:20;36.88;;;22.65;;
59978;SDS011;45839;44.882;20.650;2024-01-15T03:45:46;34.92;;;22.58;;
59978;SDS011;45839;44.882;20.650;2024-01-15T03:48:12;37.88;;;23.80;;
59978;SDS011;45839;44.882;20.650;2024-01-15T03:50:39;39.92;;;24.35;;
59978;SDS011;45839;44.882;20.650;2024-01-15T03:53:05;39.78;;;23.85;;
59978;SDS011;45839;44.882;20.650;2024-01-15T03:55:32;39.88;;;23.58;;
59978;SDS011;45839;44.882;20.650;2024-01-15T03:57:58;43.28;;;25.77;;
59978;SDS011;45839;44.882;20.650;2024-01-15T04:00:24;49.22;;;27.25;;
59978;SDS011;45839;44.882;20.650;2024-01-15T04:02:50;47.72;;;26.83;;
59978;SDS011;45839;44.882;20.650;2024-01-15T04:05:16;47.65;;;25.42;;
59978;SDS011;45839;44.882;20.650;2024-01-15T04:07:42;44.30;;;25.35;;
59978;SDS011;45839;44.882;20.650;2024-01-15T04:10:08;39.97;;;23.40;;
59978;SDS011;45839;44.882;20.650;2024-01-15T04:12:34;39.28;;;23.23;;
59978;SDS011;45839;44.882;20.650;2024-01-15T04:15:00;36.20;;;21.98;;
59978;SDS011;45839;44.882;20.650;2024-01-15T04:17:27;39.70;;;23.75;;
59978;SDS011;45839;44.882;20.650;2024-01-15T04:19:53;37.28;;;22.58;;
59978;SDS011;45839;44.882;20.650;2024-01-15T04:22:19;37.95;;;21.63;;
59978;SDS011;45839;44.882;20.650;2024-01-15T04:24:45;37.08;;;22.30;;
59978;SDS011;45839;44.882;20.650;2024-01-15T04:27:11;35.72;;;21.90;;
59978;SDS011;45839;44.882;20.650;2024-01-15T04:29:38;38.00;;;22.23;;
59978;SDS011;45839;44.882;20.650;2024-01-15T04:32:04;36.83;;;22.05;;
59978;SDS011;45839;44.882;20.650;2024-01-15T04:34:30;37.13;;;21.75;;
59978;SDS011;45839;44.882;20.650;2024-01-15T04:36:57;37.35;;;21.90;;
59978;SDS011;45839;44.882;20.650;2024-01-15T04:39:23;37.45;;;21.10;;
59978;SDS011;45839;44.882;20.650;2024-01-15T04:41:49;34.90;;;21.38;;
59978;SDS011;45839;44.882;20.650;2024-01-15T04:44:15;33.92;;;19.80;;
59978;SDS011;45839;44.882;20.650;2024-01-15T04:46:41;33.22;;;20.73;;
59978;SDS011;45839;44.882;20.650;2024-01-15T04:49:08;32.42;;;19.25;;
59978;SDS011;45839;44.882;20.650;2024-01-15T04:51:35;30.67;;;18.95;;
59978;SDS011;45839;44.882;20.650;2024-01-15T04:54:01;33.03;;;19.50;;
59978;SDS011;45839;44.882;20.650;2024-01-15T04:56:27;31.92;;;18.15;;
59978;SDS011;45839;44.882;20.650;2024-01-15T04:58:53;32.35;;;19.52;;
59978;SDS011;45839;44.882;20.650;2024-01-15T05:01:19;33.70;;;19.30;;
59978;SDS011;45839;44.882;20.650;2024-01-15T05:03:48;29.60;;;17.80;;
59978;SDS011;45839;44.882;20.650;2024-01-15T05:06:14;30.38;;;18.60;;
59978;SDS011;45839;44.882;20.650;2024-01-15T05:08:40;31.08;;;18.73;;
59978;SDS011;45839;44.882;20.650;2024-01-15T05:11:06;30.67;;;18.13;;
59978;SDS011;45839;44.882;20.650;2024-01-15T05:13:33;29.25;;;18.27;;
59978;SDS011;45839;44.882;20.650;2024-01-15T05:15:59;28.15;;;17.38;;
59978;SDS011;45839;44.882;20.650;2024-01-15T05:18:25;30.45;;;17.33;;
59978;SDS011;45839;44.882;20.650;2024-01-15T05:20:51;29.58;;;17.42;;
59978;SDS011;45839;44.882;20.650;2024-01-15T05:23:17;33.55;;;18.83;;
59978;SDS011;45839;44.882;20.650;2024-01-15T05:25:43;32.22;;;18.23;;
59978;SDS011;45839;44.882;20.650;2024-01-15T05:28:09;29.52;;;17.25;;
59978;SDS011;45839;44.882;20.650;2024-01-15T05:30:35;29.05;;;17.40;;
59978;SDS011;45839;44.882;20.650;2024-01-15T05:33:01;30.23;;;16.67;;
59978;SDS011;45839;44.882;20.650;2024-01-15T05:35:28;26.48;;;16.23;;
59978;SDS011;45839;44.882;20.650;2024-01-15T05:37:55;25.02;;;15.35;;
59978;SDS011;45839;44.882;20.650;2024-01-15T05:40:21;26.67;;;15.57;;
59978;SDS011;45839;44.882;20.650;2024-01-15T05:42:48;23.40;;;14.98;;
59978;SDS011;45839;44.882;20.650;2024-01-15T05:45:14;22.40;;;14.38;;
59978;SDS011;45839;44.882;20.650;2024-01-15T05:47:40;28.63;;;14.85;;
59978;SDS011;45839;44.882;20.650;2024-01-15T05:50:06;27.63;;;15.05;;
59978;SDS011;45839;44.882;20.650;2024-01-15T05:52:32;25.52;;;15.65;;
59978;SDS011;45839;44.882;20.650;2024-01-15T05:54:58;26.08;;;15.55;;
59978;SDS011;45839;44.882;20.650;2024-01-15T05:57:24;26.17;;;16.70;;
59978;SDS011;45839;44.882;20.650;2024-01-15T05:59:50;26.23;;;15.85;;
59978;SDS011;45839;44.882;20.650;2024-01-15T06:02:16;26.35;;;16.05;;
59978;SDS011;45839;44.882;20.650;2024-01-15T06:04:42;28.30;;;15.95;;
59978;SDS011;45839;44.882;20.650;2024-01-15T06:07:09;31.02;;;17.67;;
59978;SDS011;45839;44.882;20.650;2024-01-15T06:09:35;29.83;;;16.88;;
59978;SDS011;45839;44.882;20.650;2024-01-15T06:12:01;26.40;;;16.67;;
59978;SDS011;45839;44.882;20.650;2024-01-15T06:14:27;31.23;;;17.50;;
59978;SDS011;45839;44.882;20.650;2024-01-15T06:16:53;29.90;;;17.17;;
59978;SDS011;45839;44.882;20.650;2024-01-15T06:19:19;28.92;;;17.20;;
59978;SDS011;45839;44.882;20.650;2024-01-15T06:21:45;25.98;;;16.45;;
59978;SDS011;45839;44.882;20.650;2024-01-15T06:24:11;27.50;;;16.02;;
59978;SDS011;45839;44.882;20.650;2024-01-15T06:26:38;26.40;;;16.13;;
59978;SDS011;45839;44.882;20.650;2024-01-15T06:29:04;28.17;;;16.02;;
59978;SDS011;45839;44.882;20.650;2024-01-15T06:31:30;25.15;;;15.10;;
59978;SDS011;45839;44.882;20.650;2024-01-15T06:33:57;26.00;;;15.70;;
59978;SDS011;45839;44.882;20.650;2024-01-15T06:36:23;27.80;;;15.88;;
59978;SDS011;45839;44.882;20.650;2024-01-15T06:38:49;25.13;;;15.68;;
59978;SDS011;45839;44.882;20.650;2024-01-15T06:41:15;26.33;;;15.48;;
59978;SDS011;45839;44.882;20.650;2024-01-15T06:43:41;25.52;;;14.88;;
59978;SDS011;45839;44.882;20.650;2024-01-15T06:46:07;23.00;;;14.60;;
59978;SDS011;45839;44.882;20.650;2024-01-15T06:48:34;26.13;;;15.18;;
59978;SDS011;45839;44.882;20.650;2024-01-15T06:51:00;28.00;;;16.00;;
59978;SDS011;45839;44.882;20.650;2024-01-15T06:53:26;23.90;;;14.45;;
59978;SDS011;45839;44.882;20.650;2024-01-15T06:55:52;24.88;;;14.68;;
59978;SDS011;45839;44.882;20.650;2024-01-15T06:58:19;26.40;;;14.93;;
59978;SDS011;45839;44.882;20.650;2024-01-15T07:00:45;23.23;;;13.73;;
59978;SDS011;45839;44.882;20.650;2024-01-15T07:03:12;25.13;;;13.20;;
59978;SDS011;45839;44.882;20.650;2024-01-15T07:05:38;21.98;;;12.68;;
59978;SDS011;45839;44.882;20.650;2024-01-15T07:08:04;22.00;;;12.38;;
59978;SDS011;45839;44.882;20.650;2024-01-15T07:10:30;24.23;;;13.85;;
59978;SDS011;45839;44.882;20.650;2024-01-15T07:12:56;24.52;;;14.07;;
59978;SDS011;45839;44.882;20.650;2024-01-15T07:15:22;24.15;;;14.65;;
59978;SDS011;45839;44.882;20.650;2024-01-15T07:17:48;23.48;;;13.57;;
59978;SDS011;45839;44.882;20.650;2024-01-15T07:20:15;23.90;;;14.15;;
59978;SDS011;45839;44.882;20.650;2024-01-15T07:22:42;21.83;;;12.98;;
59978;SDS011;45839;44.882;20.650;2024-01-15T07:25:08;24.83;;;14.10;;
59978;SDS011;45839;44.882;20.650;2024-01-15T07:27:34;22.02;;;12.77;;
59978;SDS011;45839;44.882;20.650;2024-01-15T07:30:00;23.38;;;13.48;;
59978;SDS011;45839;44.882;20.650;2024-01-15T07:32:29;22.90;;;13.65;;
59978;SDS011;45839;44.882;20.650;2024-01-15T07:34:56;23.52;;;13.18;;
59978;SDS011;45839;44.882;20.650;2024-01-15T07:37:24;24.98;;;14.02;;
59978;SDS011;45839;44.882;20.650;2024-01-15T07:39:50;31.70;;;15.73;;
59978;SDS011;45839;44.882;20.650;2024-01-15T07:42:16;26.63;;;14.95;;
59978;SDS011;45839;44.882;20.650;2024-01-15T07:44:43;26.52;;;14.63;;
59978;SDS011;45839;44.882;20.650;2024-01-15T07:47:10;29.17;;;16.15;;
59978;SDS011;45839;44.882;20.650;2024-01-15T07:49:36;26.45;;;15.43;;
59978;SDS011;45839;44.882;20.650;2024-01-15T07:52:02;28.98;;;16.70;;
59978;SDS011;45839;44.882;20.650;2024-01-15T07:54:30;27.95;;;15.40;;
59978;SDS011;45839;44.882;20.650;2024-01-15T07:56:57;30.80;;;16.73;;
59978;SDS011;45839;44.882;20.650;2024-01-15T07:59:23;27.23;;;15.90;;
59978;SDS011;45839;44.882;20.650;2024-01-15T08:01:50;28.20;;;16.10;;
59978;SDS011;45839;44.882;20.650;2024-01-15T08:04:16;25.88;;;15.60;;
59978;SDS011;45839;44.882;20.650;2024-01-15T08:06:42;26.45;;;15.45;;
59978;SDS011;45839;44.882;20.650;2024-01-15T08:09:08;27.70;;;15.93;;
59978;SDS011;45839;44.882;20.650;2024-01-15T08:11:35;29.02;;;17.30;;
59978;SDS011;45839;44.882;20.650;2024-01-15T08:14:01;27.52;;;15.90;;
59978;SDS011;45839;44.882;20.650;2024-01-15T08:16:27;27.38;;;16.55;;
59978;SDS011;45839;44.882;20.650;2024-01-15T08:18:53;30.23;;;15.95;;
59978;SDS011;45839;44.882;20.650;2024-01-15T08:21:19;23.85;;;15.18;;
59978;SDS011;45839;44.882;20.650;2024-01-15T08:23:45;25.20;;;15.35;;
59978;SDS011;45839;44.882;20.650;2024-01-15T08:26:11;24.02;;;14.77;;
59978;SDS011;45839;44.882;20.650;2024-01-15T08:28:37;26.63;;;14.82;;
59978;SDS011;45839;44.882;20.650;2024-01-15T08:31:03;22.30;;;14.45;;
59978;SDS011;45839;44.882;20.650;2024-01-15T08:33:30;24.35;;;14.45;;
59978;SDS011;45839;44.882;20.650;2024-01-15T08:35:56;24.00;;;14.68;;
59978;SDS011;45839;44.882;20.650;2024-01-15T08:38:22;24.50;;;14.88;;
59978;SDS011;45839;44.882;20.650;2024-01-15T08:40:49;24.23;;;13.73;;
59978;SDS011;45839;44.882;20.650;2024-01-15T08:43:15;23.50;;;14.27;;
59978;SDS011;45839;44.882;20.650;2024-01-15T08:45:41;23.67;;;13.80;;
59978;SDS011;45839;44.882;20.650;2024-01-15T08:48:07;21.42;;;12.45;;
59978;SDS011;45839;44.882;20.650;2024-01-15T08:50:33;20.45;;;12.38;;
59978;SDS011;45839;44.882;20.650;2024-01-15T08:52:59;19.85;;;11.48;;
59978;SDS011;45839;44.882;20.650;2024-01-15T08:55:25;21.15;;;12.02;;
59978;SDS011;45839;44.882;20.650;2024-01-15T08:57:51;20.95;;;11.80;;
59978;SDS011;45839;44.882;20.650;2024-01-15T09:00:17;24.70;;;13.65;;
59978;SDS011;45839;44.882;20.650;2024-01-15T09:02:44;19.55;;;11.35;;
59978;SDS011;45839;44.882;20.650;2024-01-15T09:05:10;18.33;;;11.48;;
59978;SDS011;45839;44.882;20.650;2024-01-15T09:07:36;20.63;;;12.30;;
59978;SDS011;45839;44.882;20.650;2024-01-15T09:10:02;25.00;;;12.95;;
59978;SDS011;45839;44.882;20.650;2024-01-15T09:12:28;20.20;;;12.93;;
59978;SDS011;45839;44.882;20.650;2024-01-15T09:14:54;21.50;;;12.27;;
59978;SDS011;45839;44.882;20.650;2024-01-15T09:17:21;24.95;;;13.45;;
59978;SDS011;45839;44.882;20.650;2024-01-15T09:19:48;21.98;;;13.27;;
59978;SDS011;45839;44.882;20.650;2024-01-15T09:22:15;20.80;;;13.20;;
59978;SDS011;45839;44.882;20.650;2024-01-15T09:24:46;23.25;;;13.27;;
59978;SDS011;45839;44.882;20.650;2024-01-15T09:27:12;20.45;;;12.93;;
59978;SDS011;45839;44.882;20.650;2024-01-15T09:29:38;22.55;;;13.48;;
59978;SDS011;45839;44.882;20.650;2024-01-15T09:32:10;20.95;;;12.98;;
59978;SDS011;45839;44.882;20.650;2024-01-15T09:34:37;24.67;;;13.90;;
59978;SDS011;45839;44.882;20.650;2024-01-15T09:37:03;26.45;;;16.15;;
59978;SDS011;45839;44.882;20.650;2024-01-15T09:39:30;25.25;;;14.65;;
59978;SDS011;45839;44.882;20.650;2024-01-15T09:41:57;24.20;;;13.30;;
59978;SDS011;45839;44.882;20.650;2024-01-15T09:44:23;24.40;;;14.82;;
59978;SDS011;45839;44.882;20.650;2024-01-15T09:46:49;26.92;;;15.35;;
59978;SDS011;45839;44.882;20.650;2024-01-15T09:49:16;26.48;;;15.95;;
59978;SDS011;45839;44.882;20.650;2024-01-15T09:51:42;26.42;;;15.48;;
59978;SDS011;45839;44.882;20.650;2024-01-15T09:54:09;25.88;;;15.70;;
59978;SDS011;45839;44.882;20.650;2024-01-15T09:56:38;28.35;;;15.48;;
59978;SDS011;45839;44.882;20.650;2024-01-15T09:59:05;26.23;;;15.23;;
59978;SDS011;45839;44.882;20.650;2024-01-15T10:01:31;28.15;;;15.57;;
59978;SDS011;45839;44.882;20.650;2024-01-15T10:03:58;25.77;;;16.38;;
59978;SDS011;45839;44.882;20.650;2024-01-15T10:06:26;26.65;;;16.77;;
59978;SDS011;45839;44.882;20.650;2024-01-15T10:08:56;28.30;;;16.92;;
59978;SDS011;45839;44.882;20.650;2024-01-15T10:11:25;28.83;;;17.50;;
59978;SDS011;45839;44.882;20.650;2024-01-15T10:13:52;32.95;;;18.20;;
59978;SDS011;45839;44.882;20.650;2024-01-15T10:16:21;40.33;;;21.92;;
59978;SDS011;45839;44.882;20.650;2024-01-15T10:18:50;36.67;;;21.50;;
59978;SDS011;45839;44.882;20.650;2024-01-15T10:21:17;36.65;;;20.60;;
59978;SDS011;45839;44.882;20.650;2024-01-15T10:23:43;35.65;;;20.17;;
59978;SDS011;45839;44.882;20.650;2024-01-15T10:26:09;31.67;;;19.77;;
59978;SDS011;45839;44.882;20.650;2024-01-15T10:28:37;30.17;;;18.50;;
59978;SDS011;45839;44.882;20.650;2024-01-15T10:31:03;31.63;;;18.17;;
59978;SDS011;45839;44.882;20.650;2024-01-15T10:33:30;31.83;;;19.02;;
59978;SDS011;45839;44.882;20.650;2024-01-15T10:35:57;29.58;;;18.83;;
59978;SDS011;45839;44.882;20.650;2024-01-15T10:38:24;31.58;;;19.48;;
59978;SDS011;45839;44.882;20.650;2024-01-15T10:40:51;30.23;;;18.65;;
59978;SDS011;45839;44.882;20.650;2024-01-15T10:43:18;33.03;;;19.58;;
59978;SDS011;45839;44.882;20.650;2024-01-15T10:45:44;31.67;;;18.67;;
59978;SDS011;45839;44.882;20.650;2024-01-15T10:48:11;31.15;;;19.20;;
59978;SDS011;45839;44.882;20.650;2024-01-15T10:50:37;35.53;;;18.83;;
59978;SDS011;45839;44.882;20.650;2024-01-15T10:53:04;31.75;;;18.60;;
59978;SDS011;45839;44.882;20.650;2024-01-15T10:55:30;30.30;;;18.45;;
59978;SDS011;45839;44.882;20.650;2024-01-15T10:57:57;31.83;;;18.52;;
59978;SDS011;45839;44.882;20.650;2024-01-15T11:00:24;29.20;;;17.95;;
59978;SDS011;45839;44.882;20.650;2024-01-15T11:02:50;27.52;;;17.38;;
59978;SDS011;45839;44.882;20.650;2024-01-15T11:05:20;26.50;;;16.90;;
59978;SDS011;45839;44.882;20.650;2024-01-15T11:07:48;24.83;;;15.32;;
59978;SDS011;45839;44.882;20.650;2024-01-15T11:12:59;26.23;;;16.15;;
59978;SDS011;45839;44.882;20.650;2024-01-15T11:15:26;26.27;;;16.25;;
59978;SDS011;45839;44.882;20.650;2024-01-15T11:17:57;25.85;;;15.50;;
59978;SDS011;45839;44.882;20.650;2024-01-15T11:20:25;27.67;;;16.85;;
59978;SDS011;45839;44.882;20.650;2024-01-15T11:22:51;26.85;;;15.98;;
59978;SDS011;45839;44.882;20.650;2024-01-15T11:25:18;26.08;;;15.80;;
59978;SDS011;45839;44.882;20.650;2024-01-15T11:27:48;25.25;;;16.42;;
59978;SDS011;45839;44.882;20.650;2024-01-15T11:30:17;29.33;;;16.55;;
59978;SDS011;45839;44.882;20.650;2024-01-15T11:32:47;24.63;;;15.95;;
59978;SDS011;45839;44.882;20.650;2024-01-15T11:35:13;29.08;;;17.50;;
59978;SDS011;45839;44.882;20.650;2024-01-15T11:42:57;28.88;;;18.13;;
59978;SDS011;45839;44.882;20.650;2024-01-15T11:45:23;30.75;;;18.10;;
59978;SDS011;45839;44.882;20.650;2024-01-15T11:50:22;33.42;;;19.45;;
59978;SDS011;45839;44.882;20.650;2024-01-15T11:53:13;33.92;;;20.52;;
59978;SDS011;45839;44.882;20.650;2024-01-15T11:55:35;31.00;;;18.80;;
59978;SDS011;45839;44.882;20.650;2024-01-15T11:58:01;32.20;;;18.48;;
59978;SDS011;45839;44.882;20.650;2024-01-15T12:00:28;29.50;;;19.13;;
59978;SDS011;45839;44.882;20.650;2024-01-15T12:02:54;35.28;;;19.85;;
59978;SDS011;45839;44.882;20.650;2024-01-15T12:05:21;33.03;;;20.27;;
59978;SDS011;45839;44.882;20.650;2024-01-15T12:07:48;34.72;;;20.65;;
59978;SDS011;45839;44.882;20.650;2024-01-15T12:10:23;37.10;;;21.10;;
59978;SDS011;45839;44.882;20.650;2024-01-15T12:15:20;32.25;;;19.05;;
59978;SDS011;45839;44.882;20.650;2024-01-15T12:17:46;35.17;;;20.88;;
59978;SDS011;45839;44.882;20.650;2024-01-15T12:20:13;31.85;;;20.67;;
59978;SDS011;45839;44.882;20.650;2024-01-15T12:22:40;32.83;;;20.90;;
59978;SDS011;45839;44.882;20.650;2024-01-15T12:25:07;36.75;;;22.40;;
59978;SDS011;45839;44.882;20.650;2024-01-15T12:27:33;37.03;;;21.80;;
59978;SDS011;45839;44.882;20.650;2024-01-15T12:30:00;40.90;;;23.92;;
59978;SDS011;45839;44.882;20.650;2024-01-15T12:32:26;40.88;;;24.67;;
59978;SDS011;45839;44.882;20.650;2024-01-15T12:34:53;44.38;;;26.55;;
59978;SDS011;45839;44.882;20.650;2024-01-15T12:37:19;45.72;;;27.48;;
59978;SDS011;45839;44.882;20.650;2024-01-15T12:39:45;42.03;;;26.17;;
59978;SDS011;45839;44.882;20.650;2024-01-15T12:42:11;45.03;;;24.83;;
59978;SDS011;45839;44.882;20.650;2024-01-15T12:44:37;39.05;;;23.80;;
59978;SDS011;45839;44.882;20.650;2024-01-15T12:47:04;40.03;;;22.75;;
59978;SDS011;45839;44.882;20.650;2024-01-15T12:49:30;42.58;;;23.30;;
59978;SDS011;45839;44.882;20.650;2024-01-15T12:51:57;41.75;;;23.73;;
59978;SDS011;45839;44.882;20.650;2024-01-15T12:54:23;39.35;;;23.13;;
59978;SDS011;45839;44.882;20.650;2024-01-15T12:56:50;36.58;;;22.67;;
59978;SDS011;45839;44.882;20.650;2024-01-15T12:59:17;40.38;;;23.60;;
59978;SDS011;45839;44.882;20.650;2024-01-15T13:01:43;38.50;;;24.10;;
59978;SDS011;45839;44.882;20.650;2024-01-15T13:04:09;36.85;;;23.67;;
59978;SDS011;45839;44.882;20.650;2024-01-15T13:06:35;36.33;;;23.23;;
59978;SDS011;45839;44.882;20.650;2024-01-15T13:09:03;41.58;;;24.92;;
59978;SDS011;45839;44.882;20.650;2024-01-15T13:11:35;38.30;;;23.13;;
59978;SDS011;45839;44.882;20.650;2024-01-15T13:14:01;40.72;;;24.08;;
59978;SDS011;45839;44.882;20.650;2024-01-15T13:16:27;38.40;;;24.20;;
59978;SDS011;45839;44.882;20.650;2024-01-15T13:18:54;41.13;;;23.88;;
59978;SDS011;45839;44.882;20.650;2024-01-15T13:21:24;39.65;;;25.10;;
59978;SDS011;45839;44.882;20.650;2024-01-15T13:23:50;45.97;;;27.38;;
59978;SDS011;45839;44.882;20.650;2024-01-15T13:26:16;44.70;;;27.58;;
59978;SDS011;45839;44.882;20.650;2024-01-15T13:28:44;47.25;;;27.00;;
59978;SDS011;45839;44.882;20.650;2024-01-15T13:31:10;42.17;;;27.33;;
59978;SDS011;45839;44.882;20.650;2024-01-15T13:33:38;46.33;;;28.48;;
59978;SDS011;45839;44.882;20.650;2024-01-15T13:36:05;52.60;;;29.63;;
59978;SDS011;45839;44.882;20.650;2024-01-15T13:38:33;46.17;;;27.80;;
59978;SDS011;45839;44.882;20.650;2024-01-15T13:41:02;45.97;;;28.20;;
59978;SDS011;45839;44.882;20.650;2024-01-15T13:43:28;50.63;;;27.13;;
59978;SDS011;45839;44.882;20.650;2024-01-15T13:45:54;46.42;;;28.33;;
59978;SDS011;45839;44.882;20.650;2024-01-15T13:48:20;43.08;;;26.92;;
59978;SDS011;45839;44.882;20.650;2024-01-15T13:50:46;50.30;;;28.30;;
59978;SDS011;45839;44.882;20.650;2024-01-15T13:53:12;42.78;;;25.83;;
59978;SDS011;45839;44.882;20.650;2024-01-15T13:55:38;44.25;;;26.05;;
59978;SDS011;45839;44.882;20.650;2024-01-15T13:58:05;42.60;;;25.45;;
59978;SDS011;45839;44.882;20.650;2024-01-15T14:00:31;42.55;;;25.67;;
59978;SDS011;45839;44.882;20.650;2024-01-15T14:02:58;43.78;;;25.60;;
59978;SDS011;45839;44.882;20.650;2024-01-15T14:05:24;39.20;;;23.92;;
59978;SDS011;45839;44.882;20.650;2024-01-15T14:07:51;41.13;;;24.60;;
59978;SDS011;45839;44.882;20.650;2024-01-15T14:10:17;44.80;;;24.30;;
59978;SDS011;45839;44.882;20.650;2024-01-15T14:12:43;37.97;;;23.08;;
59978;SDS011;45839;44.882;20.650;2024-01-15T14:15:09;38.03;;;22.67;;
59978;SDS011;45839;44.882;20.650;2024-01-15T14:17:35;34.80;;;20.88;;